• Join FlightAware (Why Join?)
  • Login
  • US Flag 
08:36AM EDT


 

Airport Tracker/Info


-or-


 

Live Flight TrackerFlight Track Log ✈ N280TA ✈ 21-Mar-2014 ✈ KIAD - KFTY

Flight Track Log - Related Links

Times and Time Zones

All times are in EDT time to prevent confusion due to time zone crossing. See the N280TA flight status page for this flight to view local times or setup timezone preferences in your user account.

Time Position Orientation Groundspeed Altitude Reporting Facility
EDT Latitude Longitude Course Direction KTS MPH feet Rate Location/Type
07:35PM 38.9167 -77.5333 197° South 191 220 3,500  Level Potomac TRACON
07:36PM 38.8667 -77.5500 195° South 190 219 6,600 3,000 Climbing Potomac TRACON
07:37PM 38.8333 -77.5667 201° Southwest 179 206 9,600 2,520 Climbing Potomac TRACON
07:38PM 38.7667 -77.5833 191° South 205 236 11,700 1,980 Climbing Potomac TRACON
07:40PM 38.6198 -77.6454 197° South  Level FlightAware Approximate
07:40PM 38.6519 -77.6467 203° Southwest 253 291 15,500  Level Washington Center
07:41PM 38.5844 -77.6844 204° Southwest 259 298 17,600 1,860 Climbing Washington Center
07:42PM 38.5131 -77.7250 204° Southwest 266 306 19,300 1,800 Climbing Washington Center
07:43PM 38.4597 -77.7844 221° Southwest 272 313 21,200 1,800 Climbing Washington Center
07:44PM 38.4250 -77.8578 239° Southwest 251 289 23,000 1,560 Climbing Washington Center
07:45PM 38.3922 -77.9308 240° Southwest 251 289 24,400 1,380 Climbing Washington Center
07:46PM 38.3617 -78.0067 243° Southwest 246 283 25,800 1,260 Climbing Washington Center
07:47PM 38.3269 -78.0797 239° Southwest 246 283 27,000 1,080 Climbing Washington Center
07:48PM 38.2919 -78.1500 238° Southwest 246 283 28,000 1,020 Climbing Washington Center
07:49PM 38.2528 -78.2225 235° Southwest 246 283 29,100 900 Climbing Washington Center
07:50PM 38.2139 -78.2900 234° Southwest 251 289 29,900 780 Climbing Washington Center
07:51PM 38.1725 -78.3625 234° Southwest 257 296 30,700 780 Climbing Washington Center
07:52PM 38.1356 -78.4322 236° Southwest 257 296 31,500 600 Climbing Washington Center
07:53PM 38.1006 -78.4997 237° Southwest 252 290 32,000 480 Climbing Washington Center
07:54PM 38.0550 -78.5664 229° Southwest 252 290 32,500 660 Climbing Washington Center
07:55PM 38.0119 -78.6253 227° Southwest 252 290 33,400 660 Climbing Washington Center
07:56PM 37.9644 -78.6867 226° Southwest 252 290 33,900 240 Climbing Washington Center
07:57PM 37.9128 -78.7503 224° Southwest 257 296 34,000  Climbing Washington Center
07:58PM 37.8567 -78.8164 223° Southwest 269 310 34,000  Level Washington Center
07:59PM 37.7942 -78.8900 223° Southwest 274 315 34,000  Level Washington Center
08:00PM 37.7381 -78.9611 225° Southwest 279 321 34,000 300 Level Washington Center
08:01PM 37.6819 -79.0267 223° Southwest 279 321 34,600 480 Climbing Washington Center
08:02PM 37.6281 -79.0897 223° Southwest 272 313 35,000 600 Climbing Washington Center
08:03PM 37.5886 -79.1483 230° Southwest 266 306 35,800 900 Climbing Washington Center
08:04PM 37.5511 -79.2225 237° Southwest 236 272 36,900 840 Climbing Washington Center
08:05PM 37.5242 -79.2789 239° Southwest 224 258 37,500 540 Climbing Washington Center
08:06PM 37.4847 -79.3450 233° Southwest 218 251 38,000 240 Climbing Washington Center
08:07PM 37.4539 -79.3931 231° Southwest 223 257 38,000  Level Washington Center
08:08PM 37.4058 -79.4639 230° Southwest 235 270 38,000  Level Washington Center
08:09PM 37.3492 -79.5394 227° Southwest 259 298 38,000  Level Washington Center
08:10PM 37.3050 -79.6103 232° Southwest 259 298 38,000  Level Washington Center
08:11PM 37.2589 -79.6808 231° Southwest 259 298 38,000  Level Washington Center
08:12PM 37.2061 -79.7539 228° Southwest 271 312 38,000  Level Washington Center
08:13PM 37.1597 -79.8269 231° Southwest 276 318 38,000  Level Washington Center
08:14PM 37.1136 -79.8944 229° Southwest 281 323 38,000  Level Washington Center
08:15PM 37.0628 -79.9697 230° Southwest 281 323 38,000  Level Washington Center
08:17PM 36.9553 -80.1269 229° Southwest 284 327 38,000  Level Atlanta Center
08:18PM 36.9053 -80.1994 229° Southwest 284 327 38,000  Level Atlanta Center
08:19PM 36.8536 -80.2747 229° Southwest 289 333 38,000  Level Atlanta Center
08:20PM 36.8036 -80.3469 229° Southwest 289 333 38,000  Level Atlanta Center
08:21PM 36.7575 -80.4139 229° Southwest 289 333 38,000  Level Atlanta Center
08:22PM 36.7097 -80.4911 232° Southwest 289 333 38,000  Level Atlanta Center
08:23PM 36.6683 -80.5708 237° Southwest 284 327 38,000  Level Atlanta Center
08:24PM 36.6244 -80.6478 235° Southwest 277 319 38,000  Level Atlanta Center
08:25PM 36.5744 -80.7222 230° Southwest 277 319 38,000  Level Atlanta Center
08:26PM 36.5286 -80.7964 232° Southwest 282 325 38,000  Level Atlanta Center
08:27PM 36.4803 -80.8706 231° Southwest 282 325 38,000  Level Atlanta Center
08:28PM 36.4364 -80.9447 234° Southwest 282 325 38,000  Level Atlanta Center
08:29PM 36.3903 -81.0211 233° Southwest 282 325 38,000  Level Atlanta Center
08:30PM 36.3442 -81.0925 231° Southwest 282 325 38,000  Level Atlanta Center
08:31PM 36.3019 -81.1661 235° Southwest 277 319 38,000  Level Atlanta Center
08:32PM 36.2558 -81.2375 231° Southwest 277 319 38,000  Level Atlanta Center
08:33PM 36.2094 -81.3111 232° Southwest 277 319 38,000  Level Atlanta Center
08:34PM 36.1672 -81.3844 235° Southwest 277 319 38,000  Level Atlanta Center
08:35PM 36.1228 -81.4553 232° Southwest 277 319 38,000 -420 Level Atlanta Center
08:36PM 36.0722 -81.5342 232° Southwest 282 325 37,200 -780 Descending Atlanta Center
08:37PM 36.0217 -81.6125 231° Southwest 287 330 36,500 -780 Descending Atlanta Center
08:38PM 35.9756 -81.6961 236° Southwest 292 336 35,700 -780 Descending Atlanta Center
08:39PM 35.9247 -81.7769 232° Southwest 297 342 35,000 -360 Descending Atlanta Center
08:40PM 35.8742 -81.8606 233° Southwest 297 342 35,000  Level Atlanta Center
08:41PM 35.8253 -81.9361 231° Southwest 297 342 35,000  Level Atlanta Center
08:42PM 35.7703 -82.0117 228° Southwest 297 342 35,000  Level Atlanta Center
08:43PM 35.7236 -82.0869 233° Southwest 297 342 35,000  Level Atlanta Center
08:44PM 35.6747 -82.1650 232° Southwest 292 336 35,000  Level Atlanta Center
08:45PM 35.6236 -82.2375 229° Southwest 292 336 35,000 -240 Level Atlanta Center
08:46PM 35.5706 -82.3103 228° Southwest 285 328 34,600 -600 Descending Atlanta Center
08:47PM 35.5194 -82.3878 231° Southwest 290 334 33,800 -1,140 Descending Atlanta Center
08:48PM 35.4642 -82.4681 230° Southwest 301 346 32,400 -1,500 Descending Atlanta Center
08:49PM 35.4067 -82.5533 230° Southwest 314 361 30,900 -1,620 Descending Atlanta Center
08:50PM 35.3431 -82.6461 230° Southwest 314 361 29,200 -960 Descending Atlanta Center
08:51PM 35.2856 -82.7308 230° Southwest 324 373 29,000 -120 Descending Atlanta Center
08:52PM 35.2322 -82.8031 228° Southwest 316 364 29,000  Level Atlanta Center
08:53PM 35.1744 -82.8800 227° Southwest 311 358 29,100 -300 Climbing Atlanta Center
08:54PM 35.1128 -82.9647 228° Southwest 318 366 28,400 -1,080 Descending Atlanta Center
08:55PM 35.0508 -83.0442 226° Southwest 318 366 27,000 -1,500 Descending Atlanta Center
08:56PM 34.9908 -83.1311 230° Southwest 329 379 25,500 -1,620 Descending Atlanta Center
08:57PM 34.9353 -83.2203 233° Southwest 335 386 23,800 -1,440 Descending Atlanta Center
08:58PM 34.8836 -83.3044 233° Southwest 325 374 22,700 -1,260 Descending Atlanta Center
08:59PM 34.8278 -83.3808 228° Southwest 309 356 21,300 -1,380 Descending Atlanta Center
09:00PM 34.7717 -83.4572 228° Southwest 309 356 20,000 -1,380 Descending Atlanta Center
09:01PM 34.7136 -83.5308 226° Southwest 304 350 18,600 -1,380 Descending Atlanta Center
09:02PM 34.6617 -83.5994 227° Southwest 291 335 17,300 -1,380 Descending Atlanta Center
09:03PM 34.6078 -83.6703 227° Southwest 291 335 15,900 -1,440 Descending Atlanta Center
09:04PM 34.5514 -83.7436 227° Southwest 291 335 14,500 -1,440 Descending Atlanta Center
09:05PM 34.5036 -83.8169 232° Southwest 291 335 13,100 -1,440 Descending Atlanta Center
09:06PM 34.4558 -83.8825 229° Southwest 272 313 11,700 -1,440 Descending Atlanta Center
09:07PM 34.4078 -83.9506 229° Southwest 267 307 10,300 -1,320 Descending Atlanta Center
09:08PM 34.3642 -84.0086 228° Southwest 267 307 9,100 -1,200 Descending Atlanta Center
09:09PM 34.3161 -84.0714 227° Southwest 262 302 8,000 -600 Descending Atlanta Center
09:10PM 34.2617 -84.1217 217° Southwest 253 291 8,000 -540 Level Atlanta Center
09:11PM 34.2053 -84.1619 211° Southwest 248 285 7,000 -1,080 Descending Atlanta Center
09:12PM 34.1531 -84.2069 215° Southwest 241 277 5,900 -1,200 Descending Atlanta Center
09:13PM 34.1008 -84.2544 217° Southwest 241 277 4,700 -960 Descending Atlanta Center
09:14PM 34.0444 -84.3019 215° Southwest 241 277 4,000 -360 Descending Atlanta Center
09:15PM 33.9964 -84.3444 216° Southwest 230 265 4,000 -360 Level Atlanta Center
09:16PM 33.9483 -84.3794 211° Southwest 215 247 3,300 -540 Descending Atlanta Center
09:17PM 33.8981 -84.4117 208° Southwest 210 242 3,000 -480 Descending Atlanta Center
09:18PM 33.8500 -84.4333 201° Southwest 152 175 2,300 -480 Descending Atlanta TRACON
09:19PM 33.8167 -84.4500 203° Southwest 128 147 2,000 -420 Descending Atlanta TRACON
09:20PM 33.7833 -84.4833 220° Southwest 126 145 1,500 -540 Descending Atlanta TRACON
09:22PM 33.7667 -84.5167 220° Southwest  Level FlightAware Approximate
09:29PM 33.7791 -84.5214 220° Southwest  Level Estimated